Time;durP1;ratioP1;P1;durP2;ratioP2;P2;SDS_P1;SDS_P2;PMS_P1;PMS_P2;Temp;Humidity;BMP_temperature;BMP_pressure;BME280_temperature;BME280_humidity;BME280_pressure;Samples;Min_cycle;Max_cycle;Signal;HPM_P1;HPM_P2
2022/05/20 00:01:12;;;;;;;;;;;20.00;65.20;;;;;;6089414;23;19925;-83
2022/05/20 00:03:39;;;;;;;;;;;20.00;65.20;;;;;;6067468;23;19922;-83
2022/05/20 00:06:06;;;;;;;;;;;19.90;65.10;;;;;;6089041;23;19925;-84
2022/05/20 00:08:32;;;;;;;;;;;19.90;65.20;;;;;;6089497;23;19988;-78
2022/05/20 00:10:59;;;;;;;;;;;19.90;65.10;;;;;;6089121;23;19929;-79
2022/05/20 00:13:27;;;;;;;;;;;19.90;65.10;;;;;;6089449;23;19936;-82
2022/05/20 00:15:54;;;;;;;;;;;19.90;65.20;;;;;;6088809;23;20344;-82
2022/05/20 00:18:21;;;;;;;;;;;19.90;65.20;;;;;;6067102;23;19932;-82
2022/05/20 00:20:48;;;;;;;;;;;19.90;65.50;;;;;;6088872;23;19929;-82
2022/05/20 00:23:14;;;;;;;;;;;19.90;65.20;;;;;;6089626;23;19921;-83
2022/05/20 00:25:47;;;;;;;;;;;19.80;65.30;;;;;;6067255;23;20341;-82
2022/05/20 00:28:16;;;;;;;;;;;19.80;65.00;;;;;;6089418;23;20288;-79
2022/05/20 00:30:43;;;;;;;;;;;19.80;65.00;;;;;;6088710;23;19922;-83
2022/05/20 00:33:10;;;;;;;;;;;19.90;64.90;;;;;;6089570;23;19922;-79
2022/05/20 00:35:37;;;;;;;;;;;19.80;64.70;;;;;;6090266;23;19928;-82
2022/05/20 00:38:04;;;;;;;;;;;19.80;64.70;;;;;;6091614;23;19925;-81
2022/05/20 00:40:32;;;;;;;;;;;19.80;64.70;;;;;;6096495;23;19925;-81
2022/05/20 00:43:14;;;;;;;;;;;19.90;64.80;;;;;;6095872;23;19969;-80
2022/05/20 00:45:42;;;;;;;;;;;19.90;64.80;;;;;;6096523;23;19929;-79
2022/05/20 00:48:08;;;;;;;;;;;19.80;64.90;;;;;;6095822;23;19928;-81
2022/05/20 00:50:38;;;;;;;;;;;19.80;64.90;;;;;;6096719;23;19980;-80
2022/05/20 00:53:05;;;;;;;;;;;19.80;64.90;;;;;;6096364;23;19925;-82
2022/05/20 00:55:33;;;;;;;;;;;19.80;65.00;;;;;;6096404;23;19928;-78
2022/05/20 00:58:04;;;;;;;;;;;19.80;64.90;;;;;;6096798;23;19949;-79
2022/05/20 01:00:32;;;;;;;;;;;19.80;65.00;;;;;;6097884;23;19925;-78
2022/05/20 01:03:01;;;;;;;;;;;19.80;65.00;;;;;;6096906;23;19952;-78
2022/05/20 01:05:31;;;;;;;;;;;19.70;65.00;;;;;;6097525;23;19976;-78
2022/05/20 01:07:58;;;;;;;;;;;19.70;65.00;;;;;;6095897;23;20405;-79
2022/05/20 01:10:25;;;;;;;;;;;19.70;65.00;;;;;;6095967;23;19925;-81
2022/05/20 01:12:53;;;;;;;;;;;19.70;65.20;;;;;;6096310;23;19945;-82
2022/05/20 01:15:19;;;;;;;;;;;19.70;65.20;;;;;;6071459;23;19972;-82
2022/05/20 01:17:48;;;;;;;;;;;19.60;65.30;;;;;;6096105;23;19925;-79
2022/05/20 01:20:18;;;;;;;;;;;19.60;65.50;;;;;;6096716;23;19936;-78
2022/05/20 01:22:54;;;;;;;;;;;19.60;65.40;;;;;;6096226;23;19925;-83
2022/05/20 01:25:21;;;;;;;;;;;19.60;65.40;;;;;;6095806;23;19925;-82
2022/05/20 01:27:48;;;;;;;;;;;19.60;65.40;;;;;;6096274;23;19945;-78
2022/05/20 01:30:17;;;;;;;;;;;19.50;65.30;;;;;;6095314;23;19972;-83
2022/05/20 01:32:44;;;;;;;;;;;19.50;65.30;;;;;;6096203;23;19921;-79
2022/05/20 01:35:12;;;;;;;;;;;19.50;65.20;;;;;;6096254;23;19921;-83
2022/05/20 01:37:39;;;;;;;;;;;19.50;65.40;;;;;;6097288;23;19925;-78
2022/05/20 01:40:07;;;;;;;;;;;19.50;65.30;;;;;;6094667;23;19949;-83
2022/05/20 01:42:41;;;;;;;;;;;19.50;65.30;;;;;;6120295;23;19956;-78
2022/05/20 01:45:12;;;;;;;;;;;19.50;65.30;;;;;;6094626;23;19944;-78
2022/05/20 01:47:58;;;;;;;;;;;19.40;65.30;;;;;;6096218;23;20267;-79
2022/05/20 01:50:27;;;;;;;;;;;19.40;65.40;;;;;;6119374;23;19921;-78
2022/05/20 01:53:08;;;;;;;;;;;19.40;65.30;;;;;;6095887;23;19925;-84
2022/05/20 01:55:41;;;;;;;;;;;19.40;65.10;;;;;;6095178;23;19929;-83
2022/05/20 01:58:12;;;;;;;;;;;19.40;65.00;;;;;;6097198;23;20295;-83
2022/05/20 02:00:40;;;;;;;;;;;19.40;64.90;;;;;;6095244;23;19932;-83
2022/05/20 02:03:11;;;;;;;;;;;19.40;65.00;;;;;;6097053;23;19921;-82
2022/05/20 02:05:38;;;;;;;;;;;19.40;65.00;;;;;;6095073;23;19977;-80
2022/05/20 02:08:19;;;;;;;;;;;19.50;64.80;;;;;;6095590;23;19953;-81
2022/05/20 02:10:49;;;;;;;;;;;19.40;64.70;;;;;;6070641;23;19976;-82
2022/05/20 02:13:16;;;;;;;;;;;19.40;64.60;;;;;;6095564;23;20339;-83
2022/05/20 02:15:48;;;;;;;;;;;19.50;64.50;;;;;;6094654;23;19921;-82
2022/05/20 02:18:17;;;;;;;;;;;19.50;64.40;;;;;;6095619;23;19979;-83
2022/05/20 02:20:50;;;;;;;;;;;19.50;64.30;;;;;;6095777;23;19929;-79
2022/05/20 02:23:21;;;;;;;;;;;19.50;64.10;;;;;;6096749;23;20299;-78
2022/05/20 02:25:50;;;;;;;;;;;19.50;65.10;;;;;;6095438;23;19925;-81
2022/05/20 02:28:22;;;;;;;;;;;19.50;63.90;;;;;;6095943;23;19921;-79
2022/05/20 02:30:50;;;;;;;;;;;19.50;63.90;;;;;;6094793;23;19932;-79
2022/05/20 02:33:22;;;;;;;;;;;19.50;64.00;;;;;;6095512;23;19922;-78
2022/05/20 02:35:48;;;;;;;;;;;19.50;64.20;;;;;;6095118;23;19928;-82
2022/05/20 02:38:21;;;;;;;;;;;19.40;64.10;;;;;;6095282;23;19925;-78
2022/05/20 02:40:49;;;;;;;;;;;19.40;64.40;;;;;;6095849;23;19921;-79
2022/05/20 02:43:17;;;;;;;;;;;19.40;64.50;;;;;;6095542;23;19932;-78
2022/05/20 02:45:44;;;;;;;;;;;19.30;64.40;;;;;;6094322;23;19921;-82
2022/05/20 02:48:12;;;;;;;;;;;19.30;64.60;;;;;;6095612;23;19981;-79
2022/05/20 02:50:39;;;;;;;;;;;19.20;64.60;;;;;;6094762;23;19925;-79
2022/05/20 02:53:06;;;;;;;;;;;19.20;64.50;;;;;;6095263;23;20349;-83
2022/05/20 02:55:32;;;;;;;;;;;19.20;64.60;;;;;;6094248;23;19921;-83
2022/05/20 02:57:59;;;;;;;;;;;19.20;64.70;;;;;;6095482;23;19977;-82
2022/05/20 03:05:57;;;;;;;;;;;19.10;64.90;;;;;;6095754;23;20310;-79
2022/05/20 03:08:24;;;;;;;;;;;19.20;64.60;;;;;;6095090;23;20414;-82
2022/05/20 03:10:50;;;;;;;;;;;19.20;64.40;;;;;;6093946;23;20342;-78
2022/05/20 03:13:17;;;;;;;;;;;19.20;64.40;;;;;;6095320;23;19921;-83
2022/05/20 03:15:44;;;;;;;;;;;19.30;64.50;;;;;;6094123;23;19976;-81
2022/05/20 03:18:12;;;;;;;;;;;19.20;64.40;;;;;;6094925;23;19929;-79
2022/05/20 03:20:41;;;;;;;;;;;19.20;64.60;;;;;;6094544;23;19925;-79
2022/05/20 03:23:09;;;;;;;;;;;19.20;64.50;;;;;;6094583;23;19921;-78
2022/05/20 03:25:39;;;;;;;;;;;19.20;64.50;;;;;;6095131;23;19996;-78
2022/05/20 03:28:11;;;;;;;;;;;19.10;64.60;;;;;;6096230;23;19921;-79
2022/05/20 03:30:37;;;;;;;;;;;19.10;64.50;;;;;;6093946;23;20327;-78
2022/05/20 03:33:04;;;;;;;;;;;19.10;64.70;;;;;;6094784;23;19957;-78
2022/05/20 03:35:31;;;;;;;;;;;19.10;64.60;;;;;;6094609;23;19921;-78
2022/05/20 03:37:58;;;;;;;;;;;19.10;64.60;;;;;;6095095;23;19976;-78
2022/05/20 03:40:24;;;;;;;;;;;19.10;64.80;;;;;;6096135;23;19928;-80
2022/05/20 03:42:51;;;;;;;;;;;19.10;64.90;;;;;;6093752;23;19921;-79
2022/05/20 03:45:18;;;;;;;;;;;19.00;64.80;;;;;;6094782;23;19929;-83
2022/05/20 03:47:45;;;;;;;;;;;19.00;65.20;;;;;;6093855;23;19944;-82
2022/05/20 03:50:11;;;;;;;;;;;19.00;65.20;;;;;;6094860;23;19928;-82
2022/05/20 03:52:37;;;;;;;;;;;19.00;65.30;;;;;;6093790;23;19921;-82
2022/05/20 03:55:05;;;;;;;;;;;19.00;65.40;;;;;;6094998;23;20366;-83
2022/05/20 03:57:31;;;;;;;;;;;19.00;65.40;;;;;;6094575;23;20430;-78
2022/05/20 03:59:59;;;;;;;;;;;18.90;65.50;;;;;;6093816;23;19929;-82
2022/05/20 04:02:25;;;;;;;;;;;18.90;65.60;;;;;;6094750;23;20262;-81
2022/05/20 04:04:53;;;;;;;;;;;18.90;65.60;;;;;;6093664;23;19921;-79
2022/05/20 04:07:24;;;;;;;;;;;18.90;65.60;;;;;;6094619;23;20414;-83
2022/05/20 04:09:51;;;;;;;;;;;18.90;65.90;;;;;;6093972;23;19921;-78
2022/05/20 04:12:26;;;;;;;;;;;18.90;65.80;;;;;;6094607;23;19980;-78
2022/05/20 04:14:55;;;;;;;;;;;18.90;65.80;;;;;;6093978;23;19992;-82
2022/05/20 04:17:22;;;;;;;;;;;18.80;65.80;;;;;;6094122;23;19921;-78
2022/05/20 04:19:49;;;;;;;;;;;18.80;65.80;;;;;;6093702;23;19972;-83
2022/05/20 04:22:18;;;;;;;;;;;18.80;65.80;;;;;;6096153;23;20385;-83
2022/05/20 04:24:45;;;;;;;;;;;18.80;65.80;;;;;;6093812;23;19980;-81
2022/05/20 04:27:12;;;;;;;;;;;18.90;65.90;;;;;;6094918;23;19921;-83
2022/05/20 04:29:39;;;;;;;;;;;18.80;66.20;;;;;;6093940;23;19921;-80
2022/05/20 04:32:06;;;;;;;;;;;18.80;66.20;;;;;;6093197;23;19925;-81
2022/05/20 04:34:33;;;;;;;;;;;18.80;66.30;;;;;;6094952;23;19925;-79
2022/05/20 04:37:00;;;;;;;;;;;18.80;66.10;;;;;;6094824;23;20349;-78
2022/05/20 04:39:27;;;;;;;;;;;18.80;66.30;;;;;;6094447;23;19925;-83
2022/05/20 04:47:25;;;;;;;;;;;18.80;66.30;;;;;;6095691;23;19926;-82
2022/05/20 04:49:52;;;;;;;;;;;18.90;66.30;;;;;;6093545;23;20041;-78
2022/05/20 04:52:19;;;;;;;;;;;18.90;66.20;;;;;;6094864;23;19932;-80
2022/05/20 04:54:51;;;;;;;;;;;18.90;65.80;;;;;;6093254;23;19921;-79
2022/05/20 04:57:24;;;;;;;;;;;18.90;66.00;;;;;;6094174;23;20353;-79
2022/05/20 04:59:52;;;;;;;;;;;19.00;65.90;;;;;;6093575;23;19921;-79
2022/05/20 05:02:19;;;;;;;;;;;19.00;65.80;;;;;;6094351;23;19925;-82
2022/05/20 05:04:46;;;;;;;;;;;19.00;66.00;;;;;;6093899;23;19921;-78
2022/05/20 05:07:13;;;;;;;;;;;19.00;66.10;;;;;;6094668;23;19921;-83
2022/05/20 05:09:41;;;;;;;;;;;19.10;66.20;;;;;;6093783;23;19996;-82
2022/05/20 05:12:08;;;;;;;;;;;19.10;66.20;;;;;;6094652;23;20410;-79
2022/05/20 05:14:42;;;;;;;;;;;19.10;66.00;;;;;;6095072;23;19925;-79
2022/05/20 05:17:09;;;;;;;;;;;19.10;66.20;;;;;;6095874;23;19996;-83
2022/05/20 05:19:37;;;;;;;;;;;19.20;66.10;;;;;;6094193;23;20302;-78
2022/05/20 05:22:07;;;;;;;;;;;19.10;65.90;;;;;;6093944;23;19944;-82
2022/05/20 05:24:34;;;;;;;;;;;19.20;66.00;;;;;;6094951;23;19922;-79
2022/05/20 05:27:07;;;;;;;;;;;19.20;66.20;;;;;;6095202;23;19921;-79
2022/05/20 05:29:35;;;;;;;;;;;19.20;66.30;;;;;;6096023;23;19925;-79
2022/05/20 05:32:02;;;;;;;;;;;19.30;66.40;;;;;;6094230;23;19989;-79
2022/05/20 05:34:29;;;;;;;;;;;19.30;66.40;;;;;;6093711;23;19989;-79
2022/05/20 05:36:55;;;;;;;;;;;19.30;66.30;;;;;;6094324;23;19977;-83
2022/05/20 05:39:22;;;;;;;;;;;19.30;66.50;;;;;;6095899;23;19926;-79
2022/05/20 05:41:49;;;;;;;;;;;19.40;66.30;;;;;;6095217;23;19988;-79
2022/05/20 05:44:16;;;;;;;;;;;19.40;66.30;;;;;;6095628;23;19972;-78
2022/05/20 05:46:42;;;;;;;;;;;19.40;66.10;;;;;;6095563;23;19921;-83
2022/05/20 05:49:09;;;;;;;;;;;19.50;65.50;;;;;;6094328;23;19980;-82
2022/05/20 05:51:36;;;;;;;;;;;19.60;65.50;;;;;;6095451;23;19921;-78
2022/05/20 05:54:03;;;;;;;;;;;19.60;65.40;;;;;;6094460;23;19931;-82
2022/05/20 05:56:29;;;;;;;;;;;19.70;65.10;;;;;;6095761;23;19992;-77
2022/05/20 05:58:57;;;;;;;;;;;19.70;64.40;;;;;;6096388;23;19948;-83
2022/05/20 06:01:24;;;;;;;;;;;19.80;64.60;;;;;;6098666;23;19932;-82
2022/05/20 06:03:50;;;;;;;;;;;19.80;65.40;;;;;;6095395;23;19928;-78
2022/05/20 06:06:17;;;;;;;;;;;19.80;65.60;;;;;;6095568;23;19932;-82
2022/05/20 06:08:44;;;;;;;;;;;19.90;65.50;;;;;;6094247;23;19945;-77
2022/05/20 06:11:12;;;;;;;;;;;19.90;65.00;;;;;;6094116;23;19929;-81
2022/05/20 06:13:39;;;;;;;;;;;19.90;64.90;;;;;;6092340;23;19925;-81
2022/05/20 06:16:06;;;;;;;;;;;20.00;64.80;;;;;;6091785;23;19973;-78
2022/05/20 06:18:39;;;;;;;;;;;20.10;64.40;;;;;;6091954;23;19928;-81
2022/05/20 06:21:06;;;;;;;;;;;20.00;64.10;;;;;;6091662;23;19932;-83
2022/05/20 06:23:33;;;;;;;;;;;20.10;64.30;;;;;;6093666;23;19969;-81
2022/05/20 06:26:00;;;;;;;;;;;20.20;64.30;;;;;;6094826;23;20389;-82
2022/05/20 06:28:42;;;;;;;;;;;20.20;64.50;;;;;;6093329;23;19996;-81
2022/05/20 06:31:08;;;;;;;;;;;20.30;64.20;;;;;;6090631;23;19921;-82
2022/05/20 06:33:35;;;;;;;;;;;20.40;64.00;;;;;;6091961;23;20182;-81
2022/05/20 06:41:33;;;;;;;;;;;20.60;63.10;;;;;;6095673;23;19921;-81
2022/05/20 06:44:00;;;;;;;;;;;20.60;62.60;;;;;;6093267;23;20258;-82
2022/05/20 06:46:26;;;;;;;;;;;20.70;62.70;;;;;;6093403;23;19925;-82
2022/05/20 06:48:58;;;;;;;;;;;20.70;62.60;;;;;;6092897;23;19986;-77
2022/05/20 06:51:31;;;;;;;;;;;20.80;62.30;;;;;;6093351;23;19928;-78
2022/05/20 06:53:59;;;;;;;;;;;20.90;62.30;;;;;;6092195;23;20339;-80
2022/05/20 06:56:30;;;;;;;;;;;20.90;62.20;;;;;;6093454;23;19921;-77
2022/05/20 06:58:58;;;;;;;;;;;21.00;62.00;;;;;;6093173;23;19921;-77
2022/05/20 07:01:26;;;;;;;;;;;21.10;61.80;;;;;;6089425;23;19922;-81
2022/05/20 07:03:55;;;;;;;;;;;21.20;62.00;;;;;;6091214;23;19921;-77
2022/05/20 07:06:22;;;;;;;;;;;21.30;61.80;;;;;;6094294;23;19925;-78
2022/05/20 07:08:50;;;;;;;;;;;21.30;61.50;;;;;;6093667;23;19925;-80
2022/05/20 07:11:21;;;;;;;;;;;21.50;61.50;;;;;;6095177;23;19922;-82
2022/05/20 07:13:48;;;;;;;;;;;21.50;61.10;;;;;;6093720;23;19925;-81
2022/05/20 07:16:17;;;;;;;;;;;21.60;60.90;;;;;;6095037;23;19921;-77
2022/05/20 07:18:44;;;;;;;;;;;21.70;60.10;;;;;;6094998;23;19948;-82
2022/05/20 07:21:10;;;;;;;;;;;21.80;59.90;;;;;;6088925;23;19921;-81
2022/05/20 07:23:37;;;;;;;;;;;22.00;59.60;;;;;;6094752;23;19921;-77
2022/05/20 07:26:04;;;;;;;;;;;22.10;59.40;;;;;;6093726;23;19932;-78
2022/05/20 07:28:31;;;;;;;;;;;22.20;58.80;;;;;;6094674;23;19925;-77
2022/05/20 07:30:58;;;;;;;;;;;22.30;58.90;;;;;;6094166;23;19946;-82
2022/05/20 07:33:26;;;;;;;3.20;2.30;;;22.40;58.30;;;;;;6094102;23;19921;-80
2022/05/20 07:35:53;;;;;;;2.20;1.80;;;22.50;58.60;;;;;;6091141;23;20373;-78
2022/05/20 07:38:19;;;;;;;3.60;1.88;;;22.70;58.40;;;;;;6091566;23;20755;-82
2022/05/20 07:40:47;;;;;;;2.47;2.03;;;22.90;57.90;;;;;;6092632;23;20394;-81
2022/05/20 07:43:14;;;;;;;2.22;2.08;;;23.10;57.30;;;;;;6091947;23;20429;-82
2022/05/20 07:45:41;;;;;;;2.60;2.10;;;23.20;56.50;;;;;;6092585;23;20703;-78
2022/05/20 07:48:08;;;;;;;4.37;2.20;;;23.40;56.60;;;;;;6091510;23;20378;-78
2022/05/20 07:50:43;;;;;;;3.42;2.28;;;23.50;55.60;;;;;;6093973;23;20059;-82
2022/05/20 07:53:20;;;;;;;2.92;1.90;;;23.60;56.10;;;;;;6091753;23;20432;-82
2022/05/20 07:56:13;;;;;;;2.33;1.88;;;23.70;55.00;;;;;;6095217;23;20030;-78
2022/05/20 07:58:53;;;;;;;4.18;2.20;;;23.80;55.80;;;;;;6091809;23;20693;-78
2022/05/20 08:01:26;;;;;;;3.25;2.42;;;23.90;54.50;;;;;;6093116;23;20522;-78
2022/05/20 08:06:41;;;;;;;;;;;24.10;54.00;;;;;;6095297;23;19917;-81
2022/05/20 08:09:09;;;;;;;;;;;24.20;54.10;;;;;;6094869;23;19941;-79
2022/05/20 08:11:36;;;;;;;;;;;24.20;53.40;;;;;;6093599;23;19917;-78
2022/05/20 08:14:02;;;;;;;;;;;24.20;53.80;;;;;;6094428;23;19923;-77
2022/05/20 08:16:29;;;;;;;;;;;24.30;54.40;;;;;;6094868;23;19945;-78
2022/05/20 08:18:56;;;;;;;;;;;24.40;54.20;;;;;;6094179;23;19924;-82
2022/05/20 08:21:23;;;;;;;;;;;24.60;54.10;;;;;;6093290;23;20406;-78
2022/05/20 08:23:50;;;;;;;;;;;24.70;53.10;;;;;;6095309;23;20252;-78
2022/05/20 08:26:18;;;;;;;;;;;24.60;52.60;;;;;;6095169;23;19972;-80
2022/05/20 08:28:45;;;;;;;;;;;24.60;53.50;;;;;;6070194;23;19995;-78
2022/05/20 08:31:12;;;;;;;;;;;24.60;53.30;;;;;;6094104;23;19972;-79
2022/05/20 08:33:39;;;;;;;;;;;24.60;54.10;;;;;;6093265;23;20338;-83
2022/05/20 08:36:06;;;;;;;;;;;24.80;54.00;;;;;;6094080;23;19968;-78
2022/05/20 08:38:33;;;;;;;;;;;24.80;52.90;;;;;;6093394;23;19917;-78
2022/05/20 08:41:00;;;;;;;;;;;24.70;53.60;;;;;;6094333;23;19921;-78
2022/05/20 08:43:31;;;;;;;;;;;24.70;53.40;;;;;;6093038;23;19917;-78
2022/05/20 08:46:02;;;;;;;;;;;24.80;53.40;;;;;;6094030;23;19968;-78
2022/05/20 08:48:29;;;;;;;;;;;24.90;53.60;;;;;;6093509;23;19921;-83
2022/05/20 08:50:57;;;;;;;;;;;24.90;54.40;;;;;;6094369;23;19917;-83
2022/05/20 08:53:23;;;;;;;;;;;25.20;53.30;;;;;;6094953;23;19933;-81
2022/05/20 08:55:50;;;;;;;;;;;25.30;52.20;;;;;;6092698;23;19924;-81
2022/05/20 08:58:19;;;;;;;;;;;25.20;52.50;;;;;;6094163;23;20296;-78
2022/05/20 09:00:46;;;;;;;;;;;25.40;52.50;;;;;;6093858;23;19956;-77
2022/05/20 09:03:13;;;;;;;;;;;25.50;51.30;;;;;;6096249;23;19917;-83
2022/05/20 09:05:42;;;;;;;;;;;25.50;51.70;;;;;;6094968;23;19917;-78
2022/05/20 09:08:20;;;;;;;;;;;25.50;52.20;;;;;;6096576;23;19929;-78
2022/05/20 09:10:51;;;;;;;;;;;25.70;52.00;;;;;;6095548;23;19968;-83
2022/05/20 09:16:19;;;;;;;;;;;25.90;50.50;;;;;;6096431;23;19949;-83
2022/05/20 09:18:47;;;;;;;;;;;26.10;50.80;;;;;;6096086;23;20266;-80
2022/05/20 09:21:22;;;;;;;;;;;26.10;50.30;;;;;;6095393;23;19917;-79
2022/05/20 09:23:51;;;;;;;;;;;26.10;50.90;;;;;;6095711;23;19992;-78
2022/05/20 09:26:22;;;;;;;;;;;26.30;50.00;;;;;;6096430;23;20258;-80
2022/05/20 09:28:57;;;;;;;;;;;26.40;49.60;;;;;;6097640;23;19921;-79
2022/05/20 09:31:43;;;;;;;;;;;26.60;50.10;;;;;;6071929;23;19925;-79
2022/05/20 09:34:14;;;;;;;;;;;26.80;46.90;;;;;;6096399;23;19928;-81
2022/05/20 09:36:57;;;;;;;;;;;26.90;47.40;;;;;;6096444;23;19989;-78
2022/05/20 09:39:31;;;;;;;;;;;27.00;46.40;;;;;;6095935;23;19925;-81
2022/05/20 09:42:04;;;;;;;;;;;27.10;47.40;;;;;;6096253;23;19917;-81
2022/05/20 09:44:37;;;;;;;;;;;27.30;47.60;;;;;;6096448;23;19921;-79
2022/05/20 09:47:04;;;;;;;;;;;27.40;46.10;;;;;;6097290;23;19921;-77
2022/05/20 09:49:38;;;;;;;;;;;27.50;46.40;;;;;;6095451;23;20249;-83
2022/05/20 09:52:14;;;;;;;;;;;27.60;46.40;;;;;;6095364;23;19917;-78
2022/05/20 09:54:44;;;;;;;;;;;27.70;46.20;;;;;;6047421;23;19981;-77
2022/05/20 09:57:12;;;;;;;;;;;27.80;46.80;;;;;;6071573;23;20257;-83
2022/05/20 10:00:01;;;;;;;;;;;27.90;47.20;;;;;;6066502;23;19972;-83
2022/05/20 10:02:30;;;;;;;;;;;28.00;47.00;;;;;;6079886;23;19924;-81
2022/05/20 10:05:13;;;;;;;;;;;28.00;45.10;;;;;;6071933;23;20386;-81
2022/05/20 10:07:47;;;;;;;;;;;28.00;45.30;;;;;;6113835;23;19924;-83
2022/05/20 10:10:17;;;;;;;;;;;28.10;44.50;;;;;;6078307;23;20310;-81
2022/05/20 10:12:46;;;;;;;;;;;28.10;45.60;;;;;;6070775;23;19921;-80
2022/05/20 10:15:31;;;;;;;;;;;28.10;45.50;;;;;;6094629;23;20349;-83
2022/05/20 10:17:57;;;;;;;;;;;28.20;45.50;;;;;;6071562;23;19924;-81
2022/05/20 10:20:28;;;;;;;;;;;28.10;44.00;;;;;;6100573;23;19921;-78
2022/05/20 10:23:13;;;;;;;;;;;28.10;45.30;;;;;;6094571;23;20330;-79
2022/05/20 10:25:43;;;;;;;;;;;28.10;46.10;;;;;;6093975;23;19921;-79
2022/05/20 10:28:13;;;;;;;;;;;28.10;46.60;;;;;;6095334;23;19917;-76
2022/05/20 10:33:31;;;;;;;;;;;28.40;45.90;;;;;;6096320;23;19988;-82
2022/05/20 10:35:58;;;;;;;;;;;28.50;44.90;;;;;;6093680;23;20296;-78
2022/05/20 10:38:25;;;;;;;;;;;28.60;45.20;;;;;;6092653;23;19917;-82
2022/05/20 10:40:54;;;;;;;;;;;28.50;43.80;;;;;;6094441;23;19984;-82
2022/05/20 10:48:34;;;;;;;;;;;28.40;44.00;;;;;;6095135;23;19917;-78
2022/05/20 10:49:10;;;;;;;;;;;28.60;45.60;;;;;;6095302;23;20006;-78
2022/05/20 10:51:46;;;;;;;;;;;28.80;45.10;;;;;;6095491;23;19918;-82
2022/05/20 10:54:31;;;;;;;;;;;28.80;43.80;;;;;;6093640;23;20330;-79
2022/05/20 10:57:01;;;;;;;;;;;29.00;44.00;;;;;;6094609;23;19917;-82
2022/05/20 10:59:41;;;;;;;;;;;29.00;42.80;;;;;;6118777;23;20303;-78
2022/05/20 11:02:20;;;;;;;;;;;29.00;44.00;;;;;;6093726;23;19972;-82
2022/05/20 11:04:47;;;;;;;;;;;29.10;42.90;;;;;;6094610;23;19988;-79
2022/05/20 11:07:33;;;;;;;;;;;29.20;43.50;;;;;;6093693;23;19921;-81
2022/05/20 11:09:59;;;;;;;;;;;29.40;42.00;;;;;;6093971;23;19972;-81
2022/05/20 11:12:30;;;;;;;;;;;29.40;42.50;;;;;;6093219;23;20330;-78
2022/05/20 11:15:11;;;;;;;;;;;29.50;41.00;;;;;;6096647;23;20299;-78
2022/05/20 11:17:44;;;;;;;;;;;29.50;41.80;;;;;;6070246;23;19917;-77
2022/05/20 11:20:10;;;;;;;;;;;29.60;42.40;;;;;;6094448;23;20298;-77
2022/05/20 11:22:56;;;;;;;;;;;29.70;43.60;;;;;;6093338;23;19924;-84
2022/05/20 11:25:34;;;;;;;;;;;29.90;41.90;;;;;;6093918;23;19917;-78
2022/05/20 11:28:13;;;;;;;;;;;30.10;40.60;;;;;;6094538;23;19968;-78
2022/05/20 11:31:16;;;;;;;3.53;2.13;;;30.10;40.90;;;;;;6069511;23;19917;-78
2022/05/20 11:34:24;;;;;;;3.20;2.03;;;30.00;40.60;;;;;;6116226;23;20027;-78
2022/05/20 11:37:18;;;;;;;3.58;2.78;;;30.00;41.40;;;;;;6050425;23;20083;-83
2022/05/20 11:39:45;;;;;;;4.53;2.25;;;30.00;41.20;;;;;;6062177;23;20086;-83
2022/05/20 11:42:33;;;;;;;3.75;2.30;;;30.10;41.50;;;;;;6083574;23;20026;-78
2022/05/20 11:45:16;;;;;;;;;;;30.20;40.70;;;;;;6093741;23;20028;-78
2022/05/20 11:47:48;;;;;;;;;;;30.20;41.30;;;;;;6092982;23;19917;-79
2022/05/20 11:50:34;;;;;;;;;;;30.20;41.20;;;;;;6094720;23;19917;-78
2022/05/20 11:53:14;;;;;;;;;;;30.30;41.10;;;;;;6093613;23;19917;-78
2022/05/20 11:56:08;;;;;;;;;;;30.30;41.10;;;;;;6093818;23;19921;-83
2022/05/20 11:58:38;;;;;;;;;;;30.40;41.20;;;;;;6094414;23;19968;-79
2022/05/20 12:01:05;;;;;;;;;;;30.60;40.60;;;;;;6070141;23;19972;-79
2022/05/20 12:04:16;;;;;;;;;;;30.70;41.20;;;;;;6094521;23;20389;-78
2022/05/20 12:06:24;;;;;;;;;;;30.80;40.60;;;;;;6087445;23;19948;-84
2022/05/20 12:08:54;;;;;;;;;;;30.90;39.40;;;;;;6094029;23;20338;-78
2022/05/20 12:11:26;;;;;;;;;;;30.80;40.20;;;;;;6092337;23;20339;-78
2022/05/20 12:13:58;;;;;;;;;;;30.80;39.70;;;;;;6093561;23;19917;-84
2022/05/20 12:16:25;;;;;;;;;;;30.70;39.10;;;;;;6069401;23;19917;-83
2022/05/20 12:24:42;;;;;;;;;;;30.80;39.90;;;;;;6094046;23;19921;-81
2022/05/20 12:27:11;;;;;;;;;;;30.80;40.20;;;;;;6093609;23;19928;-82
2022/05/20 12:29:38;;;;;;;;;;;31.00;39.70;;;;;;6093087;23;19925;-78
2022/05/20 12:32:16;;;;;;;;;;;31.10;39.20;;;;;;6090820;23;20175;-82
2022/05/20 12:34:52;;;;;;;;;;;31.10;39.90;;;;;;6092860;23;19917;-82
2022/05/20 12:37:38;;;;;;;;;;;31.20;39.70;;;;;;6096120;23;19921;-80
2022/05/20 12:40:05;;;;;;;;;;;31.30;40.20;;;;;;6095114;23;19973;-79
2022/05/20 12:42:45;;;;;;;;;;;31.50;39.00;;;;;;6092052;23;19917;-82
2022/05/20 12:45:12;;;;;;;;;;;31.60;38.20;;;;;;6095630;23;20262;-79
2022/05/20 12:47:39;;;;;;;;;;;31.80;38.80;;;;;;6094130;23;19917;-83
2022/05/20 12:50:15;;;;;;;;;;;32.00;38.50;;;;;;6095730;23;19992;-84
2022/05/20 12:52:46;;;;;;;;;;;31.90;37.50;;;;;;6094147;23;20019;-82
2022/05/20 12:55:13;;;;;;;;;;;31.70;37.90;;;;;;6097611;23;19987;-81
2022/05/20 12:57:47;;;;;;;;;;;31.60;38.30;;;;;;6095039;23;19927;-81
2022/05/20 13:00:16;;;;;;;4.70;2.90;;;31.50;38.30;;;;;;6094715;23;19971;-79
2022/05/20 13:02:47;;;;;;;6.78;2.47;;;31.60;38.20;;;;;;6068817;23;20389;-78
2022/05/20 13:05:37;;;;;;;5.85;2.90;;;31.80;38.70;;;;;;6093565;23;20691;-79
2022/05/20 13:08:13;;;;;;;5.43;2.70;;;32.00;38.00;;;;;;6094347;23;20378;-78
2022/05/20 13:10:41;;;;;;;4.88;2.78;;;32.00;37.00;;;;;;6092799;23;20393;-79
2022/05/20 13:13:17;;;;;;;4.72;2.42;;;32.00;37.90;;;;;;6118038;23;20437;-82
2022/05/20 13:15:48;;;;;;;3.85;2.45;;;32.10;37.50;;;;;;6092754;23;20385;-79
2022/05/20 13:18:37;;;;;;;5.35;2.15;;;32.10;38.10;;;;;;6093897;23;20465;-83
2022/05/20 13:21:09;;;;;;;4.83;2.80;;;32.20;37.90;;;;;;6091896;23;20381;-83
2022/05/20 13:23:40;;;;;;;5.00;2.50;;;32.20;37.50;;;;;;6091948;23;20412;-78
2022/05/20 13:26:37;;;;;;;2.72;2.10;;;32.00;37.30;;;;;;6092843;23;20385;-80
2022/05/20 13:29:18;;;;;;;4.65;2.50;;;31.90;38.20;;;;;;6091681;23;20751;-81
2022/05/20 13:31:46;;;;;;;4.70;2.85;;;31.60;38.10;;;;;;6092436;23;20381;-83
2022/05/20 13:34:14;;;;;;;3.22;2.20;;;31.50;38.80;;;;;;6093267;23;20385;-80
2022/05/20 13:36:51;;;;;;;6.45;2.22;;;31.50;38.10;;;;;;6093859;23;20386;-79
2022/05/20 13:39:22;;;;;;;3.47;2.30;;;31.50;38.10;;;;;;6093445;23;20441;-78
2022/05/20 13:41:50;;;;;;;2.93;2.13;;;31.50;38.60;;;;;;6117887;23;20394;-78
2022/05/20 13:44:23;;;;;;;4.43;2.42;;;31.60;39.20;;;;;;6094666;23;20988;-83
2022/05/20 13:49:44;;;;;;;5.80;2.35;;;31.70;37.80;;;;;;6093455;23;20381;-79
2022/05/20 13:52:13;;;;;;;4.13;2.60;;;31.60;37.50;;;;;;6093660;23;20766;-78
2022/05/20 13:54:43;;;;;;;4.40;2.50;;;31.30;37.60;;;;;;6093055;23;20377;-83
2022/05/20 13:57:19;;;;;;;4.82;2.47;;;31.10;38.50;;;;;;6094018;23;20381;-77
2022/05/20 13:59:50;;;;;;;5.40;2.30;;;31.10;38.60;;;;;;6052503;23;20383;-80
2022/05/20 14:02:37;;;;;;;3.60;2.17;;;31.20;39.60;;;;;;6076072;23;20383;-83
2022/05/20 14:05:19;;;;;;;5.45;2.63;;;31.50;39.60;;;;;;6049737;23;20402;-80
2022/05/20 14:07:51;;;;;;;4.25;2.10;;;31.80;39.20;;;;;;6063484;23;20379;-82
2022/05/20 14:10:33;;;;;;;5.35;2.90;;;32.00;38.00;;;;;;6064696;23;20379;-83
2022/05/20 14:13:09;;;;;;;3.67;2.80;;;31.90;36.80;;;;;;6116584;23;20428;-83
2022/05/20 14:15:45;;;;;;;3.08;2.22;;;31.80;37.60;;;;;;6092720;23;20385;-81
2022/05/20 14:18:22;;;;;;;2.50;1.80;;;32.00;38.00;;;;;;6093427;23;20429;-81
2022/05/20 14:21:01;;;;;;;2.20;1.73;;;32.10;37.40;;;;;;6092844;23;20386;-77
2022/05/20 14:23:33;;;;;;;1.52;1.40;;;32.30;37.10;;;;;;6093237;23;20382;-81
2022/05/20 14:26:04;;;;;;;3.15;2.10;;;32.40;37.10;;;;;;6092589;23;20380;-79
2022/05/20 14:28:51;;;;;;;2.50;2.30;;;32.40;37.10;;;;;;6118104;23;20373;-77
2022/05/20 14:31:28;;;;;;;3.33;2.50;;;32.40;38.10;;;;;;6091389;23;20893;-79
2022/05/20 14:34:28;;;;;;;3.35;2.00;;;32.30;36.90;;;;;;6092799;23;20846;-80
2022/05/20 14:37:02;;;;;;;2.42;2.10;;;32.20;37.50;;;;;;6062847;23;20382;-78
2022/05/20 14:39:30;;;;;;;3.83;2.47;;;32.30;37.50;;;;;;6039939;23;20383;-79
2022/05/20 14:42:17;;;;;;;5.32;2.35;;;32.30;36.70;;;;;;6086996;23;20442;-78
2022/05/20 14:44:48;;;;;;;2.33;1.97;;;32.30;37.70;;;;;;6063469;23;20462;-80
2022/05/20 14:47:24;;;;;;;3.65;2.42;;;32.30;37.60;;;;;;6067568;23;20384;-78
2022/05/20 14:50:12;;;;;;;2.45;2.25;;;32.10;37.00;;;;;;6050385;23;20379;-79
2022/05/20 14:52:43;;;;;;;3.10;2.10;;;32.00;37.50;;;;;;6073655;23;20372;-82
2022/05/20 14:55:22;;;;;;;2.07;1.60;;;31.80;37.30;;;;;;6095259;23;20436;-82
2022/05/20 14:58:19;;;;;;;3.55;2.08;;;31.60;37.70;;;;;;6101338;23;20373;-79